KLTS/LTS METAR and TAF weather

Enter ICAO airport designator
Station Type Date Time Source
KLTS METAR 2020/07/07 07:56 UTC NOAA

KLTS 070756Z AUTO 00000KT 10SM CLR 22/22 A2997 RMK AO2 SLP133 T02170217 $


Station Type Date Time Source
KLTS Decoded METAR 2020/07/07 07:56 UTC NOAA

Altus Air Force Base, OK, United States (KLTS) 34-39N 099-16W 420M
Jul 07, 2020 - 03:56 AM EDT / 2020.07.07 0756 UTC
Wind: Calm:0
Visibility: 10 mile(s):0
Sky conditions: clear
Temperature: 71.1 F (21.7 C)
Dew Point: 71.1 F (21.7 C)
Relative Humidity: 100%
Pressure (altimeter): 29.97 in. Hg (1014 hPa)
ob: KLTS 070756Z AUTO 00000KT 10SM CLR 22/22 A2997 RMK AO2 SLP133 T02170217
cycle: 8

Station Type Date Time Source
KLTS TAF 2020/07/02 23:03 UTC NOAA

TAF
AMD KLTS 012356Z 0123/0223 19012G18KT 9999 FEW110 QNH2972INS
BECMG 0202/0203 16009KT 9999 NSW FEW110 SCT130 QNH2979INS
BECMG 0217/0218 18010G15KT 9999 BKN150 QNH2983INS
BECMG 0220/0221 16012G18KT 8000 -SHRA SCT090 BKN130 QNH2982INS TX37/0123Z TN25/0212Z

Example: see airport list